createdAt,value
2023-01-30T00:01:56.532Z,16.80
2023-01-30T00:03:00.318Z,18.80
2023-01-30T00:04:04.069Z,14.10
2023-01-30T00:05:08.622Z,19.50
2023-01-30T00:06:12.915Z,17.50
2023-01-30T00:07:16.726Z,20.10
2023-01-30T00:08:20.576Z,18.50
2023-01-30T00:09:24.201Z,19.20
2023-01-30T00:10:27.893Z,19.80
2023-01-30T00:11:33.188Z,20.90
2023-01-30T00:12:36.771Z,19.50
2023-01-30T00:13:42.108Z,21.30
2023-01-30T00:14:45.790Z,21.00
2023-01-30T00:15:49.493Z,19.30
2023-01-30T00:16:53.031Z,17.50
2023-01-30T00:17:56.671Z,20.20
2023-01-30T00:19:00.324Z,18.40
2023-01-30T00:20:04.673Z,17.90
2023-01-30T00:21:11.111Z,18.60
2023-01-30T00:22:14.888Z,18.50
2023-01-30T00:23:18.746Z,20.80
2023-01-30T00:24:23.020Z,18.60
2023-01-30T00:25:27.664Z,18.80
2023-01-30T00:26:31.573Z,19.20
2023-01-30T00:27:35.350Z,19.00
2023-01-30T00:28:40.723Z,16.30
2023-01-30T00:29:54.369Z,18.30
2023-01-30T00:31:08.409Z,18.60
2023-01-30T00:32:12.031Z,19.70
2023-01-30T00:33:18.373Z,18.40
2023-01-30T00:34:22.169Z,18.90
2023-01-30T00:35:28.700Z,18.40
2023-01-30T00:36:32.446Z,19.20
2023-01-30T00:37:36.032Z,19.10
2023-01-30T00:38:39.768Z,17.50
2023-01-30T00:39:44.018Z,19.50
2023-01-30T00:40:48.634Z,16.20
2023-01-30T00:42:10.705Z,16.80
2023-01-30T00:43:35.326Z,9.80
2023-01-30T00:44:57.307Z,14.00
2023-01-30T00:46:21.660Z,15.20
2023-01-30T00:47:26.956Z,16.30
2023-01-30T00:48:31.953Z,17.30
2023-01-30T00:49:37.116Z,15.60
2023-01-30T00:50:43.669Z,16.20
2023-01-30T00:51:48.813Z,15.10
2023-01-30T00:52:52.530Z,18.00
2023-01-30T00:53:56.161Z,16.90
2023-01-30T00:55:00.100Z,19.10
2023-01-30T00:56:04.229Z,18.50
2023-01-30T00:57:08.142Z,16.10
2023-01-30T00:58:12.956Z,19.70
2023-01-30T00:59:16.560Z,20.30
2023-01-30T01:00:23.259Z,15.10
2023-01-30T01:01:27.874Z,18.10
2023-01-30T01:02:31.837Z,16.70
2023-01-30T01:03:35.778Z,17.70
2023-01-30T01:04:45.389Z,21.40
2023-01-30T01:05:49.044Z,15.90
2023-01-30T01:06:52.726Z,19.40
2023-01-30T01:07:56.773Z,17.70
2023-01-30T01:09:00.610Z,18.70
2023-01-30T01:10:04.636Z,18.60
2023-01-30T01:11:08.468Z,16.80
2023-01-30T01:12:12.157Z,15.50
2023-01-30T01:13:15.744Z,17.80
2023-01-30T01:14:19.300Z,18.50
2023-01-30T01:15:23.931Z,17.80
2023-01-30T01:17:31.534Z,19.50
2023-01-30T01:18:35.336Z,15.40
2023-01-30T01:19:38.945Z,16.20
2023-01-30T01:20:43.627Z,16.80
2023-01-30T01:21:47.492Z,16.30
2023-01-30T01:22:55.609Z,18.60
2023-01-30T01:24:00.177Z,19.30
2023-01-30T01:26:07.718Z,12.60
2023-01-30T01:27:11.551Z,19.70
2023-01-30T01:28:21.523Z,14.80
2023-01-30T01:29:25.173Z,17.40
2023-01-30T01:30:28.981Z,16.90
2023-01-30T01:31:32.671Z,16.90
2023-01-30T01:32:36.496Z,18.20
2023-01-30T01:33:40.448Z,16.90
2023-01-30T01:34:44.137Z,15.30
2023-01-30T01:35:49.521Z,15.80
2023-01-30T01:36:54.174Z,18.80
2023-01-30T01:37:58.427Z,17.80
2023-01-30T01:39:03.464Z,18.00
2023-01-30T01:40:27.723Z,19.40
2023-01-30T01:41:31.452Z,15.80
2023-01-30T01:42:37.656Z,19.40
2023-01-30T01:44:00.419Z,17.10
2023-01-30T01:45:16.762Z,14.70
2023-01-30T01:46:26.538Z,20.60
2023-01-30T01:47:33.305Z,15.70
2023-01-30T01:48:42.086Z,15.80
2023-01-30T01:49:45.775Z,14.30
2023-01-30T01:51:16.442Z,20.30
2023-01-30T01:52:21.520Z,15.00
2023-01-30T01:53:30.132Z,16.50
2023-01-30T01:54:36.407Z,18.70
2023-01-30T01:55:43.604Z,18.90
2023-01-30T01:56:49.581Z,16.90
2023-01-30T01:58:07.753Z,16.70
2023-01-30T01:59:36.545Z,17.70
2023-01-30T02:00:40.296Z,16.60
2023-01-30T02:01:44.027Z,15.60
2023-01-30T02:03:05.447Z,20.60
2023-01-30T02:04:11.087Z,18.90
2023-01-30T02:05:17.394Z,17.10
2023-01-30T02:06:22.720Z,14.60
2023-01-30T02:07:29.293Z,15.40
2023-01-30T02:08:37.216Z,15.00
2023-01-30T02:09:40.920Z,18.20
2023-01-30T02:11:00.103Z,19.50
2023-01-30T02:12:04.611Z,14.90
2023-01-30T02:13:08.878Z,14.10
2023-01-30T02:14:14.434Z,17.80
2023-01-30T02:15:19.970Z,18.40
2023-01-30T02:16:23.857Z,17.00
2023-01-30T02:17:27.657Z,16.50
2023-01-30T02:18:34.545Z,16.90
2023-01-30T02:19:50.546Z,16.30
2023-01-30T02:21:40.868Z,15.50
2023-01-30T02:23:22.054Z,15.00
2023-01-30T02:24:40.088Z,15.30
2023-01-30T02:25:56.481Z,12.90
2023-01-30T02:27:20.437Z,13.10
2023-01-30T02:28:40.867Z,14.80
2023-01-30T02:30:19.546Z,16.90
2023-01-30T02:31:40.913Z,17.70
2023-01-30T02:33:03.159Z,15.50
2023-01-30T02:34:17.441Z,14.80
2023-01-30T02:35:49.961Z,14.50
2023-01-30T02:37:17.571Z,16.10
2023-01-30T02:38:36.487Z,15.40
2023-01-30T02:39:54.383Z,13.20
2023-01-30T02:41:13.383Z,17.20
2023-01-30T02:42:43.235Z,14.10
2023-01-30T02:44:48.447Z,13.40
2023-01-30T02:46:04.813Z,14.10
2023-01-30T02:47:15.135Z,13.90
2023-01-30T02:48:35.148Z,13.80
2023-01-30T02:49:43.491Z,14.10
2023-01-30T02:50:53.922Z,9.00
2023-01-30T02:52:00.285Z,15.20
2023-01-30T02:53:08.000Z,15.70
2023-01-30T02:54:13.234Z,14.90
2023-01-30T02:55:25.135Z,16.70
2023-01-30T02:56:28.796Z,17.30
2023-01-30T02:57:32.462Z,18.10
2023-01-30T02:58:44.860Z,14.20
2023-01-30T02:59:59.285Z,17.80
2023-01-30T03:01:33.045Z,15.50
2023-01-30T03:03:10.603Z,16.40
2023-01-30T03:04:52.302Z,14.50
2023-01-30T03:06:14.548Z,14.30
2023-01-30T03:07:42.418Z,14.40
2023-01-30T03:09:03.528Z,17.70
2023-01-30T03:10:09.707Z,14.10
2023-01-30T03:11:17.842Z,15.10
2023-01-30T03:12:54.686Z,15.10
2023-01-30T03:14:26.080Z,15.60
2023-01-30T03:15:35.373Z,12.70
2023-01-30T03:16:40.666Z,16.50
2023-01-30T03:17:47.303Z,17.80
2023-01-30T03:18:52.828Z,18.90
2023-01-30T03:19:56.746Z,14.80
2023-01-30T03:21:07.123Z,12.30
2023-01-30T03:22:10.888Z,18.10
2023-01-30T03:23:14.604Z,17.30
2023-01-30T03:24:18.328Z,19.10
2023-01-30T03:25:26.533Z,13.70
2023-01-30T03:26:36.088Z,15.40
2023-01-30T03:27:40.364Z,20.90
2023-01-30T03:28:46.443Z,15.30
2023-01-30T03:29:50.413Z,19.60
2023-01-30T03:30:54.103Z,15.20
2023-01-30T03:31:57.946Z,15.40
2023-01-30T03:33:01.739Z,17.80
2023-01-30T03:34:05.486Z,18.90
2023-01-30T03:35:09.691Z,17.30
2023-01-30T03:36:13.510Z,16.50
2023-01-30T03:37:17.099Z,13.10
2023-01-30T03:38:21.080Z,19.20
2023-01-30T03:39:27.027Z,17.40
2023-01-30T03:40:31.516Z,15.10
2023-01-30T03:41:35.286Z,18.30
2023-01-30T03:42:39.224Z,18.10
2023-01-30T03:43:43.110Z,18.80
2023-01-30T03:44:46.805Z,17.80
2023-01-30T03:45:50.549Z,15.90
2023-01-30T03:46:54.359Z,16.30
2023-01-30T03:47:57.896Z,19.00
2023-01-30T03:49:01.694Z,18.90
2023-01-30T03:50:05.970Z,19.00
2023-01-30T03:51:12.488Z,17.90
2023-01-30T03:52:16.212Z,12.20
2023-01-30T03:53:19.838Z,15.90
2023-01-30T03:54:23.561Z,20.80
2023-01-30T03:55:27.314Z,16.50
2023-01-30T03:56:31.115Z,16.90
2023-01-30T03:57:34.920Z,16.90
2023-01-30T03:58:38.807Z,16.20
2023-01-30T03:59:52.696Z,20.50
2023-01-30T04:00:57.572Z,18.90
2023-01-30T04:02:02.456Z,20.10
2023-01-30T04:03:07.548Z,15.70
2023-01-30T04:04:11.429Z,17.70
2023-01-30T04:05:16.019Z,16.50
2023-01-30T04:06:23.912Z,16.60
2023-01-30T04:07:30.063Z,16.90
2023-01-30T04:08:33.931Z,18.80
2023-01-30T04:09:37.670Z,18.30
2023-01-30T04:10:41.496Z,19.50
2023-01-30T04:11:45.255Z,17.40
2023-01-30T04:12:49.566Z,18.00
2023-01-30T04:13:53.344Z,16.30
2023-01-30T04:14:57.067Z,16.80
2023-01-30T04:16:23.113Z,17.40
2023-01-30T04:18:01.582Z,16.50
2023-01-30T04:19:23.637Z,13.60
2023-01-30T04:20:27.583Z,17.60
2023-01-30T04:21:32.733Z,16.60
2023-01-30T04:22:36.631Z,15.70
2023-01-30T04:23:41.345Z,10.50
2023-01-30T04:24:45.104Z,17.40
2023-01-30T04:25:48.960Z,18.90
2023-01-30T04:26:54.029Z,18.60
2023-01-30T04:27:57.728Z,15.90
2023-01-30T04:29:05.238Z,19.20
2023-01-30T04:30:09.910Z,18.50
2023-01-30T04:31:15.257Z,20.30
2023-01-30T04:32:47.973Z,17.10
2023-01-30T04:33:51.713Z,17.40
2023-01-30T04:34:55.618Z,17.80
2023-01-30T04:36:00.179Z,21.20
2023-01-30T04:37:04.197Z,15.70
2023-01-30T04:38:08.011Z,17.10
2023-01-30T04:39:12.093Z,20.20
2023-01-30T04:40:16.913Z,21.00
2023-01-30T04:41:21.484Z,20.00
2023-01-30T04:42:25.375Z,21.80
2023-01-30T04:44:01.668Z,19.40
2023-01-30T04:45:44.448Z,17.00
2023-01-30T04:46:48.831Z,16.20
2023-01-30T04:47:52.552Z,15.40
2023-01-30T04:48:56.481Z,21.90
2023-01-30T04:50:00.459Z,16.90
2023-01-30T04:51:04.780Z,18.70
2023-01-30T04:52:08.792Z,17.10
2023-01-30T04:53:16.316Z,19.30
2023-01-30T04:55:25.116Z,15.60
2023-01-30T04:56:29.866Z,16.10
2023-01-30T04:57:33.594Z,17.00
2023-01-30T04:58:37.325Z,14.80
2023-01-30T04:59:41.047Z,18.80
2023-01-30T05:00:46.595Z,18.70
2023-01-30T05:01:50.541Z,14.50
2023-01-30T05:02:55.961Z,14.90
2023-01-30T05:04:00.101Z,17.00
2023-01-30T05:05:03.843Z,20.30
2023-01-30T05:06:07.958Z,19.40
2023-01-30T05:07:11.991Z,19.00
2023-01-30T05:08:17.776Z,20.10
2023-01-30T05:09:21.394Z,10.60
2023-01-30T05:10:27.348Z,19.10
2023-01-30T05:11:32.177Z,16.60
2023-01-30T05:12:36.125Z,20.20
2023-01-30T05:13:39.878Z,21.40
2023-01-30T05:14:43.536Z,22.00
2023-01-30T05:15:47.213Z,19.00
2023-01-30T05:16:50.861Z,21.20
2023-01-30T05:17:54.528Z,21.10
2023-01-30T05:18:58.252Z,19.30
2023-01-30T05:20:01.948Z,17.50
2023-01-30T05:21:07.888Z,21.80
2023-01-30T05:22:12.274Z,20.40
2023-01-30T05:24:20.451Z,19.20
2023-01-30T05:25:24.159Z,19.80
2023-01-30T05:26:27.874Z,17.30
2023-01-30T05:27:31.501Z,17.10
2023-01-30T05:28:35.751Z,23.00
2023-01-30T05:29:39.416Z,24.60
2023-01-30T05:30:44.201Z,19.80
2023-01-30T05:31:48.951Z,20.20
2023-01-30T05:32:52.622Z,19.90
2023-01-30T05:33:56.471Z,20.90
2023-01-30T05:35:00.359Z,17.90
2023-01-30T05:36:04.087Z,21.90
2023-01-30T05:37:07.807Z,21.30
2023-01-30T05:38:12.077Z,20.80
2023-01-30T05:39:16.036Z,22.00
2023-01-30T05:40:19.753Z,18.60
2023-01-30T05:41:23.413Z,19.40
2023-01-30T05:42:27.099Z,23.10
2023-01-30T05:43:31.907Z,16.80
2023-01-30T05:44:35.555Z,17.70
2023-01-30T05:45:39.275Z,16.60
2023-01-30T05:46:42.949Z,19.90
2023-01-30T05:47:51.843Z,18.50
2023-01-30T05:48:55.373Z,17.30
2023-01-30T05:49:59.004Z,17.90
2023-01-30T05:51:03.490Z,21.70
2023-01-30T05:52:08.535Z,18.10
2023-01-30T05:54:17.148Z,15.60
2023-01-30T05:55:20.973Z,19.20
2023-01-30T05:56:25.011Z,19.70
2023-01-30T05:57:28.685Z,16.30
2023-01-30T05:58:33.099Z,17.60
2023-01-30T05:59:36.850Z,15.50
2023-01-30T06:00:40.485Z,18.20
2023-01-30T06:01:44.485Z,19.50
2023-01-30T06:02:48.220Z,15.00
2023-01-30T06:03:52.833Z,10.20
2023-01-30T06:04:56.724Z,18.90
2023-01-30T06:06:02.553Z,19.80
2023-01-30T06:07:06.497Z,16.50
2023-01-30T06:08:10.124Z,18.80
2023-01-30T06:09:13.754Z,20.10
2023-01-30T06:10:17.742Z,20.70
2023-01-30T06:11:22.094Z,19.20
2023-01-30T06:12:25.848Z,13.50
2023-01-30T06:13:32.384Z,15.10
2023-01-30T06:14:36.014Z,15.20
2023-01-30T06:15:39.833Z,16.80
2023-01-30T06:16:43.792Z,14.30
2023-01-30T06:17:47.595Z,20.90
2023-01-30T06:18:51.287Z,20.60
2023-01-30T06:19:55.496Z,14.40
2023-01-30T06:20:59.098Z,17.30
2023-01-30T06:22:03.145Z,20.10
2023-01-30T06:23:06.866Z,15.30
2023-01-30T06:24:10.520Z,11.20
2023-01-30T06:25:14.556Z,19.00
2023-01-30T06:26:18.256Z,18.10
2023-01-30T06:27:21.952Z,14.90
2023-01-30T06:28:26.230Z,19.90
2023-01-30T06:29:29.800Z,18.10
2023-01-30T06:30:33.444Z,15.50
2023-01-30T06:31:37.216Z,16.20
2023-01-30T06:32:42.828Z,13.00
2023-01-30T06:33:47.035Z,16.10
2023-01-30T06:34:50.631Z,18.40
2023-01-30T06:35:54.625Z,13.50
2023-01-30T06:36:58.257Z,20.30
2023-01-30T06:38:02.662Z,18.30
2023-01-30T06:39:06.320Z,17.00
2023-01-30T06:40:11.068Z,12.50
2023-01-30T06:41:14.771Z,14.30
2023-01-30T06:42:18.459Z,18.90
2023-01-30T06:43:22.151Z,17.70
2023-01-30T06:44:25.831Z,17.40
2023-01-30T06:45:29.675Z,15.30
2023-01-30T06:46:33.384Z,17.60
2023-01-30T06:47:51.720Z,19.40
2023-01-30T06:48:55.522Z,17.30
2023-01-30T06:50:00.254Z,13.20
2023-01-30T06:53:11.242Z,14.20
2023-01-30T06:54:15.063Z,15.60
2023-01-30T06:55:21.655Z,14.70
2023-01-30T06:56:26.345Z,16.30
2023-01-30T06:57:30.039Z,16.00
2023-01-30T06:58:33.724Z,18.50
2023-01-30T06:59:37.452Z,17.40
2023-01-30T07:00:42.548Z,16.90
2023-01-30T07:01:46.371Z,15.60
2023-01-30T07:02:49.980Z,18.50
2023-01-30T07:03:54.029Z,15.50
2023-01-30T07:05:00.106Z,19.00
2023-01-30T07:06:03.979Z,16.00
2023-01-30T07:07:07.668Z,17.20
2023-01-30T07:08:12.247Z,14.10
2023-01-30T07:10:19.604Z,15.10
2023-01-30T07:11:23.294Z,13.90
2023-01-30T07:12:28.143Z,14.60
2023-01-30T07:13:31.736Z,14.90
2023-01-30T07:14:35.348Z,16.40
2023-01-30T07:15:39.504Z,14.60
2023-01-30T07:16:43.194Z,14.70
2023-01-30T07:17:46.857Z,13.80
2023-01-30T07:18:50.506Z,16.00
2023-01-30T07:19:54.229Z,14.90
2023-01-30T07:20:57.833Z,16.80
2023-01-30T07:22:03.229Z,11.70
2023-01-30T07:23:07.246Z,8.30
2023-01-30T07:24:10.897Z,13.80
2023-01-30T07:25:14.576Z,14.50
2023-01-30T07:26:18.403Z,12.80
2023-01-30T07:27:22.269Z,15.80
2023-01-30T07:28:25.982Z,14.60
2023-01-30T07:29:29.783Z,15.30
2023-01-30T07:30:36.067Z,16.00
2023-01-30T07:31:39.877Z,15.10
2023-01-30T07:32:43.723Z,14.40
2023-01-30T07:33:47.405Z,15.30
2023-01-30T07:34:51.047Z,16.00
2023-01-30T07:35:55.354Z,15.30
2023-01-30T07:36:59.095Z,15.40
2023-01-30T07:38:04.538Z,14.40
2023-01-30T07:39:09.465Z,10.70
2023-01-30T07:40:13.589Z,13.40
2023-01-30T07:41:17.482Z,13.80
2023-01-30T07:42:21.135Z,15.40
2023-01-30T07:43:24.849Z,10.80
2023-01-30T07:44:28.720Z,15.20
2023-01-30T07:45:49.008Z,15.30
2023-01-30T07:46:53.040Z,14.10
2023-01-30T07:47:56.725Z,11.70
2023-01-30T07:49:04.570Z,12.30
2023-01-30T07:50:08.817Z,13.30
2023-01-30T07:51:12.605Z,15.30
2023-01-30T07:52:16.352Z,13.90
2023-01-30T07:53:20.048Z,15.50
2023-01-30T07:54:23.730Z,14.60
2023-01-30T07:55:27.511Z,13.50
2023-01-30T07:56:31.288Z,11.20
2023-01-30T07:57:35.051Z,14.70
2023-01-30T07:58:38.796Z,12.60
2023-01-30T07:59:42.913Z,10.50
2023-01-30T08:00:46.661Z,14.60
2023-01-30T08:01:50.458Z,13.10
2023-01-30T08:02:54.103Z,14.80
2023-01-30T08:03:58.079Z,11.50
2023-01-30T08:05:02.247Z,13.80
2023-01-30T08:06:07.342Z,13.60
2023-01-30T08:07:11.047Z,13.20
2023-01-30T08:08:14.965Z,11.40
2023-01-30T08:09:18.932Z,13.30
2023-01-30T08:10:22.671Z,15.20
2023-01-30T08:11:26.351Z,16.20
2023-01-30T08:12:30.207Z,13.30
2023-01-30T08:13:35.426Z,12.30
2023-01-30T08:14:39.586Z,14.80
2023-01-30T08:15:43.680Z,17.00
2023-01-30T08:16:47.554Z,15.80
2023-01-30T08:17:55.168Z,15.30
2023-01-30T08:18:59.269Z,15.50
2023-01-30T08:20:04.750Z,15.20
2023-01-30T08:21:08.474Z,10.90
2023-01-30T08:22:13.562Z,14.20
2023-01-30T08:23:17.315Z,11.10
2023-01-30T08:24:21.132Z,16.10
2023-01-30T08:25:25.076Z,10.80
2023-01-30T08:26:28.893Z,13.80
2023-01-30T08:27:32.596Z,11.80
2023-01-30T08:28:36.529Z,12.10
2023-01-30T08:29:40.505Z,12.50
2023-01-30T08:30:44.341Z,14.20
2023-01-30T08:31:48.312Z,14.70
2023-01-30T08:32:52.147Z,13.50
2023-01-30T08:33:55.820Z,14.10
2023-01-30T08:34:59.586Z,13.10
2023-01-30T08:36:03.540Z,12.10
2023-01-30T08:37:07.445Z,14.80
2023-01-30T08:38:11.625Z,13.80
2023-01-30T08:39:15.266Z,29.80
2023-01-30T08:40:19.339Z,14.00
2023-01-30T08:41:23.119Z,14.60
2023-01-30T08:42:27.058Z,17.00
2023-01-30T08:43:30.734Z,15.30
2023-01-30T08:44:34.357Z,15.50
2023-01-30T08:45:38.038Z,13.80
2023-01-30T08:46:41.773Z,13.00
2023-01-30T08:47:45.602Z,16.10
2023-01-30T08:48:50.422Z,15.40
2023-01-30T08:49:54.242Z,15.30
2023-01-30T08:50:57.836Z,14.90
2023-01-30T08:52:01.481Z,12.00
2023-01-30T08:53:07.438Z,14.00
2023-01-30T08:54:11.096Z,16.90
2023-01-30T08:55:14.823Z,14.90
2023-01-30T08:56:19.260Z,14.70
2023-01-30T08:57:22.872Z,11.30
2023-01-30T08:58:26.557Z,11.30
2023-01-30T08:59:30.866Z,12.60
2023-01-30T09:00:34.636Z,11.60
2023-01-30T09:01:38.512Z,14.10
2023-01-30T09:02:42.504Z,11.00
2023-01-30T09:03:46.385Z,14.00
2023-01-30T09:04:50.078Z,12.90
2023-01-30T09:05:56.016Z,13.40
2023-01-30T09:06:59.838Z,11.90
2023-01-30T09:08:03.468Z,10.40
2023-01-30T09:09:07.177Z,13.80
2023-01-30T09:10:11.165Z,10.20
2023-01-30T09:11:14.923Z,11.80
2023-01-30T09:12:18.643Z,10.20
2023-01-30T09:13:22.558Z,13.10
2023-01-30T09:14:26.311Z,12.80
2023-01-30T09:15:29.967Z,10.80
2023-01-30T09:16:33.664Z,11.70
2023-01-30T09:17:38.236Z,10.90
2023-01-30T09:18:43.729Z,11.60
2023-01-30T09:19:47.408Z,13.10
2023-01-30T09:20:52.798Z,10.90
2023-01-30T09:21:57.590Z,11.30
2023-01-30T09:23:01.869Z,9.70
2023-01-30T09:24:06.170Z,11.90
2023-01-30T09:25:09.922Z,11.80
2023-01-30T09:26:13.793Z,11.70
2023-01-30T09:27:17.761Z,10.30
2023-01-30T09:28:21.460Z,10.70
2023-01-30T09:29:26.243Z,10.70
2023-01-30T09:30:30.158Z,8.80
2023-01-30T09:31:34.010Z,11.00
2023-01-30T09:32:37.738Z,8.70
2023-01-30T09:33:41.325Z,7.40
2023-01-30T09:34:44.938Z,9.20
2023-01-30T09:35:49.499Z,10.70
2023-01-30T09:38:01.517Z,8.20
2023-01-30T09:40:16.563Z,5.80
2023-01-30T09:41:34.527Z,7.10
2023-01-30T09:43:06.053Z,5.20
2023-01-30T09:44:32.843Z,7.00
2023-01-30T09:45:43.314Z,6.30
2023-01-30T09:47:26.377Z,7.80
2023-01-30T09:48:37.464Z,7.90
2023-01-30T09:49:54.775Z,6.50
2023-01-30T09:51:05.968Z,7.00
2023-01-30T09:52:25.107Z,7.10
2023-01-30T09:53:40.129Z,7.80
2023-01-30T09:54:45.926Z,7.20
2023-01-30T09:55:50.041Z,8.80
2023-01-30T09:56:59.744Z,7.40
2023-01-30T09:58:03.492Z,8.20
2023-01-30T09:59:07.265Z,9.00
2023-01-30T10:00:33.989Z,7.50
2023-01-30T10:01:52.826Z,7.80
2023-01-30T10:03:05.113Z,5.20
2023-01-30T10:04:33.310Z,6.60
2023-01-30T10:05:49.403Z,4.80
2023-01-30T10:07:16.848Z,7.60
2023-01-30T10:09:00.578Z,6.70
2023-01-30T10:10:12.631Z,5.60
2023-01-30T10:11:23.724Z,5.60
2023-01-30T10:12:33.730Z,6.80
2023-01-30T10:14:02.591Z,6.40
2023-01-30T10:15:25.008Z,5.50
2023-01-30T10:16:54.296Z,5.90
2023-01-30T10:18:03.909Z,4.80
2023-01-30T10:19:36.676Z,6.10
2023-01-30T10:20:48.283Z,6.10
2023-01-30T10:22:06.095Z,5.90
2023-01-30T10:23:34.354Z,6.30
2023-01-30T10:25:02.341Z,5.80
2023-01-30T10:26:13.272Z,4.40
2023-01-30T10:27:18.280Z,4.80
2023-01-30T10:28:37.561Z,6.20
2023-01-30T10:29:47.571Z,5.50
2023-01-30T10:30:54.295Z,4.90
2023-01-30T10:32:22.698Z,4.80
2023-01-30T10:33:36.796Z,5.00
2023-01-30T10:34:46.483Z,4.70
2023-01-30T10:36:01.339Z,5.70
2023-01-30T10:37:20.102Z,5.00
2023-01-30T10:39:06.595Z,4.70
2023-01-30T10:40:22.561Z,3.90
2023-01-30T10:41:33.126Z,4.30
2023-01-30T10:42:55.026Z,4.50
2023-01-30T10:44:04.346Z,5.20
2023-01-30T10:45:20.449Z,4.30
2023-01-30T10:46:46.745Z,4.40
2023-01-30T10:47:58.466Z,3.60
2023-01-30T10:49:19.796Z,5.10
2023-01-30T10:50:44.572Z,5.10
2023-01-30T10:51:59.394Z,4.60
2023-01-30T10:53:32.181Z,4.70
2023-01-30T10:54:43.181Z,3.90
2023-01-30T10:56:03.827Z,4.80
2023-01-30T10:57:23.347Z,5.20
2023-01-30T10:58:39.197Z,3.40
2023-01-30T11:00:02.810Z,4.80
2023-01-30T11:01:31.149Z,3.40
2023-01-30T11:02:49.618Z,5.80
2023-01-30T11:04:30.232Z,4.00
2023-01-30T11:05:56.355Z,4.40
2023-01-30T11:07:02.125Z,4.00
2023-01-30T11:08:18.096Z,3.90
2023-01-30T11:09:23.772Z,4.40
2023-01-30T11:10:28.360Z,5.20
2023-01-30T11:11:43.821Z,4.20
2023-01-30T11:12:47.941Z,4.30
2023-01-30T11:14:01.567Z,6.30
2023-01-30T11:15:05.837Z,4.00
2023-01-30T11:16:10.481Z,4.40
2023-01-30T11:17:18.313Z,4.00
2023-01-30T11:19:56.483Z,4.80
2023-01-30T11:21:07.707Z,3.80
2023-01-30T11:22:14.919Z,3.80
2023-01-30T11:23:31.774Z,3.80
2023-01-30T11:24:44.488Z,3.90
2023-01-30T11:26:10.144Z,3.30
2023-01-30T11:27:17.964Z,4.40
2023-01-30T11:28:21.890Z,3.60
2023-01-30T11:29:31.477Z,3.70
2023-01-30T11:30:36.613Z,3.50
2023-01-30T11:31:41.916Z,4.90
2023-01-30T11:32:49.201Z,5.30
2023-01-30T11:34:01.684Z,3.60
2023-01-30T11:35:08.252Z,3.20
2023-01-30T11:36:28.492Z,4.50
2023-01-30T11:37:33.500Z,4.60
2023-01-30T11:38:40.480Z,3.80
2023-01-30T11:39:50.586Z,3.80
2023-01-30T11:41:09.375Z,3.00
2023-01-30T11:42:13.067Z,4.30
2023-01-30T11:43:16.922Z,4.10
2023-01-30T11:44:27.941Z,3.80
2023-01-30T11:45:37.947Z,3.30
2023-01-30T11:46:43.162Z,3.60
2023-01-30T11:47:57.684Z,3.00
2023-01-30T11:49:46.407Z,3.80
2023-01-30T11:50:46.847Z,2.30
2023-01-30T11:53:02.989Z,3.00
2023-01-30T11:54:13.183Z,4.50
2023-01-30T11:55:20.037Z,4.10
2023-01-30T11:56:41.154Z,3.20
2023-01-30T11:57:50.637Z,3.50
2023-01-30T11:59:00.008Z,2.80
2023-01-30T12:00:04.300Z,3.60
2023-01-30T12:01:16.197Z,3.60
2023-01-30T12:02:25.090Z,3.00
2023-01-30T12:03:30.985Z,3.00
2023-01-30T12:05:42.612Z,3.00
2023-01-30T12:06:46.467Z,2.60
2023-01-30T12:07:51.784Z,3.30
2023-01-30T12:08:56.028Z,2.70
2023-01-30T12:09:59.726Z,2.80
2023-01-30T12:11:07.269Z,4.00
2023-01-30T12:12:29.119Z,2.10
2023-01-30T12:13:35.760Z,3.10
2023-01-30T12:14:46.064Z,2.90
2023-01-30T12:16:16.190Z,3.10
2023-01-30T12:17:57.730Z,3.30
2023-01-30T12:19:22.560Z,2.90
2023-01-30T12:20:44.742Z,2.60
2023-01-30T12:22:07.129Z,3.30
2023-01-30T12:23:25.717Z,4.20
2023-01-30T12:24:38.377Z,3.30
2023-01-30T12:25:51.928Z,3.20
2023-01-30T12:27:01.744Z,3.10
2023-01-30T12:28:20.215Z,4.10
2023-01-30T12:29:32.917Z,3.40
2023-01-30T12:30:42.529Z,2.40
2023-01-30T12:33:15.487Z,4.50
2023-01-30T12:34:21.600Z,4.10
2023-01-30T12:35:54.718Z,4.60
2023-01-30T12:37:36.471Z,3.10
2023-01-30T12:38:56.214Z,3.00
2023-01-30T12:40:34.724Z,2.90
2023-01-30T12:41:59.329Z,3.10
2023-01-30T12:43:17.776Z,3.10
2023-01-30T12:44:30.873Z,3.40
2023-01-30T12:45:41.078Z,2.50
2023-01-30T12:46:50.748Z,2.60
2023-01-30T12:48:13.326Z,3.10
2023-01-30T12:50:01.784Z,2.50
2023-01-30T12:51:12.932Z,2.90
2023-01-30T12:52:49.324Z,3.40
2023-01-30T12:54:03.474Z,2.50
2023-01-30T12:55:33.333Z,4.40
2023-01-30T12:58:03.736Z,2.90
2023-01-30T12:59:18.351Z,2.90
2023-01-30T13:00:45.224Z,3.70
2023-01-30T13:02:10.586Z,2.20
2023-01-30T13:03:56.846Z,2.60
2023-01-30T13:05:21.491Z,2.30
2023-01-30T13:06:44.737Z,3.10
2023-01-30T13:07:50.895Z,2.50
2023-01-30T13:09:32.336Z,3.10
2023-01-30T13:10:51.697Z,3.10
2023-01-30T13:12:24.866Z,3.30
2023-01-30T13:13:42.964Z,3.10
2023-01-30T13:15:16.744Z,3.40
2023-01-30T13:16:36.566Z,2.80
2023-01-30T13:18:15.573Z,2.90
2023-01-30T13:19:40.854Z,3.20
2023-01-30T13:20:51.086Z,3.90
2023-01-30T13:22:27.401Z,3.20
2023-01-30T13:23:37.031Z,2.30
2023-01-30T13:25:12.810Z,3.00
2023-01-30T13:26:24.336Z,2.30
2023-01-30T13:27:32.642Z,2.80
2023-01-30T13:28:48.791Z,2.90
2023-01-30T13:29:53.926Z,3.70
2023-01-30T13:30:58.889Z,3.20
2023-01-30T13:32:06.547Z,3.20
2023-01-30T13:33:14.981Z,3.10
2023-01-30T13:34:35.126Z,3.10
2023-01-30T13:36:02.376Z,4.20
2023-01-30T13:37:11.106Z,3.30
2023-01-30T13:38:20.816Z,4.70
2023-01-30T13:39:42.322Z,3.20
2023-01-30T13:40:49.519Z,3.70
2023-01-30T13:41:59.516Z,3.40
2023-01-30T13:43:33.473Z,4.30
2023-01-30T13:44:42.310Z,3.70
2023-01-30T13:45:49.040Z,3.10
2023-01-30T13:46:54.807Z,3.40
2023-01-30T13:48:23.260Z,3.10
2023-01-30T13:49:36.968Z,3.50
2023-01-30T13:50:58.590Z,3.40
2023-01-30T13:52:33.592Z,3.50
2023-01-30T13:53:37.755Z,3.20
2023-01-30T13:55:08.272Z,3.40
2023-01-30T13:56:44.426Z,2.80
2023-01-30T13:58:00.920Z,3.70
2023-01-30T13:59:30.707Z,3.80
2023-01-30T14:00:36.177Z,3.00
2023-01-30T14:01:59.165Z,3.20
2023-01-30T14:03:05.616Z,3.50
2023-01-30T14:04:44.929Z,3.50
2023-01-30T14:05:51.770Z,5.00
2023-01-30T14:07:27.953Z,3.50
2023-01-30T14:08:46.987Z,2.90
2023-01-30T14:10:08.988Z,3.40
2023-01-30T14:11:41.486Z,2.90
2023-01-30T14:12:52.734Z,5.00
2023-01-30T14:14:19.429Z,4.10
2023-01-30T14:15:25.554Z,3.20
2023-01-30T14:16:47.881Z,3.40
2023-01-30T14:17:57.753Z,3.50
2023-01-30T14:19:29.261Z,3.10
2023-01-30T14:20:35.158Z,3.20
2023-01-30T14:21:39.651Z,3.40
2023-01-30T14:22:56.795Z,20.20
2023-01-30T14:24:02.359Z,4.50
2023-01-30T14:25:25.173Z,3.40
2023-01-30T14:26:47.247Z,2.80
2023-01-30T14:28:17.181Z,3.10
2023-01-30T14:29:39.234Z,3.10
2023-01-30T14:30:52.141Z,3.40
2023-01-30T14:31:56.131Z,3.40
2023-01-30T14:33:03.004Z,3.40
2023-01-30T14:34:42.309Z,4.00
2023-01-30T14:36:06.164Z,3.90
2023-01-30T14:37:43.628Z,3.30
2023-01-30T14:38:56.948Z,3.10
2023-01-30T14:40:01.598Z,2.80
2023-01-30T14:41:05.320Z,3.60
2023-01-30T14:42:20.149Z,2.40
2023-01-30T14:43:42.252Z,3.70
2023-01-30T14:45:15.838Z,3.60
2023-01-30T14:46:19.913Z,2.80
2023-01-30T14:47:33.383Z,3.60
2023-01-30T14:48:50.906Z,2.50
2023-01-30T14:49:55.233Z,2.90
2023-01-30T14:52:38.059Z,2.80
2023-01-30T14:54:02.531Z,4.10
2023-01-30T14:55:15.719Z,3.70
2023-01-30T14:56:54.106Z,3.00
2023-01-30T14:58:01.676Z,3.90
2023-01-30T14:59:28.098Z,2.80
2023-01-30T15:00:36.064Z,2.50
2023-01-30T15:02:01.128Z,3.10
2023-01-30T15:03:16.672Z,4.40
2023-01-30T15:04:21.253Z,4.00
2023-01-30T15:05:34.236Z,3.20
2023-01-30T15:06:38.155Z,4.40
2023-01-30T15:07:47.312Z,3.40
2023-01-30T15:08:52.283Z,2.80
2023-01-30T15:10:43.884Z,3.10
2023-01-30T15:12:01.442Z,4.10
2023-01-30T15:13:32.310Z,4.20
2023-01-30T15:14:54.034Z,4.10
2023-01-30T15:16:21.425Z,3.40
2023-01-30T15:17:38.365Z,2.90
2023-01-30T15:18:51.895Z,3.10
2023-01-30T15:20:30.793Z,3.00
2023-01-30T15:21:49.446Z,3.10
2023-01-30T15:23:35.649Z,5.20
2023-01-30T15:24:51.137Z,4.20
2023-01-30T15:26:24.921Z,3.40
2023-01-30T15:27:38.975Z,6.30
2023-01-30T15:29:02.405Z,8.10
2023-01-30T15:30:16.830Z,4.10
2023-01-30T15:31:23.058Z,5.80
2023-01-30T15:32:29.307Z,3.30
2023-01-30T15:33:42.969Z,3.30
2023-01-30T15:34:56.456Z,3.30
2023-01-30T15:36:00.391Z,3.40